createdAt,value
2023-03-24T00:03:02.512Z,12.50
2023-03-24T00:08:08.271Z,12.61
2023-03-24T00:13:11.191Z,12.60
2023-03-24T00:18:14.149Z,12.64
2023-03-24T00:23:19.257Z,12.47
2023-03-24T00:28:22.481Z,12.44
2023-03-24T00:33:25.465Z,12.50
2023-03-24T00:38:30.108Z,12.54
2023-03-24T00:43:33.489Z,12.51
2023-03-24T00:48:38.262Z,12.47
2023-03-24T00:53:43.706Z,12.39
2023-03-24T00:58:46.698Z,12.38
2023-03-24T01:03:50.821Z,12.10
2023-03-24T01:08:56.058Z,12.21
2023-03-24T01:13:59.080Z,12.22
2023-03-24T01:19:02.054Z,12.11
2023-03-24T01:24:07.815Z,12.13
2023-03-24T01:29:11.417Z,12.16
2023-03-24T01:34:14.358Z,12.15
2023-03-24T01:39:18.703Z,12.21
2023-03-24T01:44:27.398Z,12.17
2023-03-24T01:49:34.449Z,12.01
2023-03-24T01:54:43.027Z,12.30
2023-03-24T01:59:50.715Z,12.46
2023-03-24T02:05:15.776Z,12.44
2023-03-24T02:10:24.511Z,12.73
2023-03-24T02:15:31.232Z,13.14
2023-03-24T02:21:21.871Z,13.16
2023-03-24T02:26:45.396Z,13.03
2023-03-24T02:32:09.267Z,13.09
2023-03-24T02:37:47.758Z,12.92
2023-03-24T02:43:06.898Z,12.99
2023-03-24T02:48:24.488Z,13.11
2023-03-24T02:53:34.044Z,12.93
2023-03-24T02:59:20.648Z,12.92
2023-03-24T03:04:34.006Z,12.68
2023-03-24T03:09:41.129Z,12.71
2023-03-24T03:14:50.370Z,12.68
2023-03-24T03:19:59.301Z,12.87
2023-03-24T03:25:05.208Z,13.05
2023-03-24T03:30:15.120Z,12.93
2023-03-24T03:35:23.659Z,12.98
2023-03-24T03:40:32.246Z,12.98
2023-03-24T03:45:44.888Z,12.90
2023-03-24T03:50:48.511Z,12.85
2023-03-24T03:55:52.306Z,13.04
2023-03-24T04:00:57.078Z,12.96
2023-03-24T04:06:31.990Z,12.90
2023-03-24T04:11:51.927Z,12.85
2023-03-24T04:17:16.643Z,12.85
2023-03-24T04:22:30.351Z,12.74
2023-03-24T04:28:02.054Z,12.51
2023-03-24T04:33:10.549Z,12.54
2023-03-24T04:38:18.397Z,12.38
2023-03-24T04:43:36.597Z,12.39
2023-03-24T04:48:44.154Z,12.44
2023-03-24T04:53:53.745Z,12.40
2023-03-24T04:58:58.980Z,12.36
2023-03-24T05:04:04.857Z,12.35
2023-03-24T05:09:07.962Z,12.25
2023-03-24T05:14:11.038Z,12.84
2023-03-24T05:19:15.635Z,12.69
2023-03-24T05:24:18.855Z,12.52
2023-03-24T05:29:21.853Z,12.52
2023-03-24T05:34:26.841Z,12.48
2023-03-24T05:39:41.110Z,12.51
2023-03-24T05:44:53.336Z,12.76
2023-03-24T05:50:03.817Z,12.90
2023-03-24T05:55:09.504Z,13.19
2023-03-24T06:00:17.838Z,13.29
2023-03-24T06:05:30.972Z,13.28
2023-03-24T06:10:36.876Z,13.38
2023-03-24T06:15:42.855Z,13.43
2023-03-24T06:21:05.948Z,13.55
2023-03-24T06:26:12.507Z,13.78
2023-03-24T06:31:37.323Z,13.77
2023-03-24T06:36:41.994Z,14.07
2023-03-24T06:41:45.654Z,14.19
2023-03-24T06:46:48.889Z,14.28
2023-03-24T06:51:54.276Z,14.36
2023-03-24T06:56:58.927Z,14.41
2023-03-24T07:02:12.531Z,14.49
2023-03-24T07:08:02.913Z,14.64
2023-03-24T07:13:07.034Z,14.78
2023-03-24T07:18:13.129Z,14.94
2023-03-24T07:23:20.873Z,14.95
2023-03-24T07:28:35.738Z,14.95
2023-03-24T07:33:39.545Z,15.20
2023-03-24T07:38:43.949Z,15.38
2023-03-24T07:43:52.893Z,15.39
2023-03-24T07:49:11.827Z,15.52
2023-03-24T07:54:27.321Z,15.62
2023-03-24T07:59:31.736Z,15.71
2023-03-24T08:04:42.973Z,16.21
2023-03-24T08:09:55.917Z,15.85
2023-03-24T08:14:58.808Z,15.87
2023-03-24T08:20:03.384Z,16.00
2023-03-24T08:25:11.558Z,15.91
2023-03-24T08:30:17.278Z,15.93
2023-03-24T08:35:23.632Z,16.04
2023-03-24T08:40:29.858Z,16.04
2023-03-24T08:45:33.588Z,15.93
2023-03-24T08:50:38.827Z,15.88
2023-03-24T08:55:45.410Z,15.93
2023-03-24T09:00:49.402Z,16.07
2023-03-24T09:05:52.404Z,16.27
2023-03-24T09:10:56.642Z,16.60
2023-03-24T09:16:01.534Z,16.51
2023-03-24T09:21:04.694Z,16.88
2023-03-24T09:26:09.047Z,16.75
2023-03-24T09:31:12.091Z,16.96
2023-03-24T09:36:15.056Z,16.83
2023-03-24T09:41:21.978Z,16.67
2023-03-24T09:46:30.111Z,16.60
2023-03-24T09:51:37.473Z,17.23
2023-03-24T09:56:47.280Z,17.67
2023-03-24T10:01:52.204Z,18.22
2023-03-24T10:07:01.648Z,17.61
2023-03-24T10:12:23.938Z,17.58
2023-03-24T10:17:38.307Z,17.18
2023-03-24T10:22:51.797Z,16.98
2023-03-24T10:28:01.447Z,17.34
2023-03-24T10:33:04.834Z,17.68
2023-03-24T10:38:18.203Z,17.62
2023-03-24T10:43:24.452Z,18.09
2023-03-24T10:48:44.198Z,18.58
2023-03-24T10:53:49.003Z,19.29
2023-03-24T10:58:53.630Z,18.66
2023-03-24T11:04:00.890Z,18.35
2023-03-24T11:09:20.744Z,17.98
2023-03-24T11:14:27.055Z,17.81
2023-03-24T11:19:32.384Z,17.84
2023-03-24T11:24:38.463Z,17.77
2023-03-24T11:29:43.975Z,17.65
2023-03-24T11:34:51.002Z,17.85
2023-03-24T11:40:16.851Z,18.16
2023-03-24T11:45:28.976Z,18.43
2023-03-24T11:50:35.714Z,18.15
2023-03-24T11:55:47.988Z,17.76
2023-03-24T12:00:58.777Z,18.07
2023-03-24T12:06:16.531Z,18.03
2023-03-24T12:11:27.561Z,18.49
2023-03-24T12:16:41.645Z,18.56
2023-03-24T12:21:59.220Z,18.09
2023-03-24T12:27:02.659Z,18.27
2023-03-24T12:32:36.452Z,17.89
2023-03-24T12:37:49.806Z,17.21
2023-03-24T12:42:59.340Z,17.03
2023-03-24T12:48:17.609Z,16.87
2023-03-24T12:53:36.503Z,17.03
2023-03-24T12:58:44.972Z,17.16
2023-03-24T13:03:55.391Z,16.67
2023-03-24T13:09:08.113Z,16.58
2023-03-24T13:14:16.567Z,16.59
2023-03-24T13:19:24.899Z,16.44
2023-03-24T13:24:28.173Z,16.61
2023-03-24T13:29:49.872Z,16.94
2023-03-24T13:34:59.956Z,17.41
2023-03-24T13:40:10.996Z,17.06
2023-03-24T13:45:28.457Z,17.36
2023-03-24T13:50:35.294Z,17.24
2023-03-24T13:55:40.779Z,16.82
2023-03-24T14:01:06.305Z,16.24
2023-03-24T14:06:11.370Z,14.11
2023-03-24T14:11:45.561Z,13.13
2023-03-24T14:16:54.393Z,13.34
2023-03-24T14:22:12.016Z,13.36
2023-03-24T14:27:37.118Z,12.88
2023-03-24T14:32:45.077Z,13.05
2023-03-24T14:37:55.398Z,13.28
2023-03-24T14:43:06.295Z,12.46
2023-03-24T14:48:24.236Z,12.60
2023-03-24T14:53:28.523Z,12.82
2023-03-24T14:58:39.006Z,13.18
2023-03-24T15:03:50.925Z,13.34
2023-03-24T15:08:58.405Z,12.81
2023-03-24T15:14:03.289Z,12.99
2023-03-24T15:19:10.673Z,12.87
2023-03-24T15:24:29.828Z,12.55
2023-03-24T15:29:32.895Z,12.76
2023-03-24T15:34:40.000Z,12.28
2023-03-24T15:39:49.711Z,12.45
2023-03-24T15:44:54.696Z,12.72
2023-03-24T15:49:59.871Z,12.91
2023-03-24T15:55:09.892Z,12.74
2023-03-24T16:00:16.441Z,12.96
2023-03-24T16:05:22.967Z,12.50
2023-03-24T16:10:39.870Z,11.85
2023-03-24T16:15:45.210Z,11.72
2023-03-24T16:20:48.628Z,11.80
2023-03-24T16:25:53.110Z,11.75
2023-03-24T16:31:01.082Z,11.74
2023-03-24T16:36:04.158Z,11.71
2023-03-24T16:41:13.266Z,11.56
2023-03-24T16:46:17.106Z,11.86
2023-03-24T16:51:20.140Z,12.07
2023-03-24T16:56:26.522Z,11.87
2023-03-24T17:01:33.745Z,11.87
2023-03-24T17:06:38.022Z,11.92
2023-03-24T17:11:44.312Z,11.99
2023-03-24T17:16:50.724Z,11.97
2023-03-24T17:21:59.109Z,11.88
2023-03-24T17:27:04.154Z,11.87
2023-03-24T17:32:07.333Z,11.91
2023-03-24T17:37:10.354Z,11.77
2023-03-24T17:42:14.629Z,11.61
2023-03-24T17:47:17.625Z,11.58
2023-03-24T17:52:21.886Z,11.73
2023-03-24T17:57:26.182Z,11.49
2023-03-24T18:02:29.074Z,11.62
2023-03-24T18:07:32.310Z,11.60
2023-03-24T18:12:36.929Z,11.53
2023-03-24T18:17:40.373Z,11.53
2023-03-24T18:22:43.306Z,11.35
2023-03-24T18:27:47.611Z,11.48
2023-03-24T18:32:50.619Z,11.37
2023-03-24T18:37:53.544Z,11.32
2023-03-24T18:42:57.856Z,11.29
2023-03-24T18:48:00.922Z,11.49
2023-03-24T18:53:04.284Z,11.31
2023-03-24T18:58:15.005Z,11.30
2023-03-24T19:03:18.488Z,11.32
2023-03-24T19:08:21.547Z,11.26
2023-03-24T19:13:25.815Z,11.07
2023-03-24T19:18:28.972Z,11.17
2023-03-24T19:23:32.545Z,10.88
2023-03-24T19:28:37.588Z,10.83
2023-03-24T19:33:41.303Z,10.85
2023-03-24T19:38:45.377Z,10.92
2023-03-24T19:43:50.598Z,10.93
2023-03-24T19:48:53.678Z,10.96
2023-03-24T19:53:56.731Z,10.90
2023-03-24T19:59:01.001Z,10.81
2023-03-24T20:04:03.984Z,10.70
2023-03-24T20:09:06.927Z,10.65
2023-03-24T20:14:11.289Z,10.60
2023-03-24T20:19:14.280Z,10.62
2023-03-24T20:24:17.198Z,10.46
2023-03-24T20:29:21.956Z,10.42
2023-03-24T20:34:25.339Z,10.54
2023-03-24T20:39:28.258Z,10.22
2023-03-24T20:44:32.519Z,10.36
2023-03-24T20:49:35.528Z,10.31
2023-03-24T20:54:38.464Z,10.38
2023-03-24T20:59:42.672Z,10.40
2023-03-24T21:04:45.786Z,10.11
2023-03-24T21:09:48.806Z,10.19
2023-03-24T21:14:53.012Z,10.25
2023-03-24T21:19:56.454Z,10.13
2023-03-24T21:24:59.384Z,10.25
2023-03-24T21:30:03.807Z,10.27
2023-03-24T21:35:08.824Z,10.19
2023-03-24T21:40:12.918Z,10.22
2023-03-24T21:45:19.290Z,10.25
2023-03-24T21:50:23.993Z,10.21
2023-03-24T21:55:30.279Z,10.26
2023-03-24T22:00:39.973Z,10.36
2023-03-24T22:05:44.280Z,10.30
2023-03-24T22:10:47.212Z,10.46
2023-03-24T22:15:56.180Z,10.53
2023-03-24T22:21:03.716Z,10.57
2023-03-24T22:26:08.395Z,10.56
2023-03-24T22:31:14.402Z,10.73
2023-03-24T22:36:17.390Z,10.83
2023-03-24T22:41:20.497Z,10.82
2023-03-24T22:46:24.946Z,10.91
2023-03-24T22:51:28.756Z,10.87
2023-03-24T22:56:31.645Z,10.87
2023-03-24T23:01:36.004Z,10.87
2023-03-24T23:06:40.108Z,10.89
2023-03-24T23:11:43.095Z,10.85
2023-03-24T23:16:47.341Z,10.92
2023-03-24T23:21:50.377Z,10.88
2023-03-24T23:26:53.621Z,10.78
2023-03-24T23:31:57.977Z,10.69
2023-03-24T23:37:03.631Z,10.68
2023-03-24T23:42:06.876Z,10.73
2023-03-24T23:47:11.318Z,10.71
2023-03-24T23:52:14.243Z,10.50
2023-03-24T23:57:17.265Z,10.43
